Terminal Aerodrome Forecast
Issued by NWS Sioux Falls, SD

Home | Current Version | Previous Version | Text Only | Print | Product List | Glossary Off
Versions: 1 2 3 4 5 6 7 8 9 10 11 12 13

250
FTUS43 KFSD 241720
TAFFSD
TAF
KFSD 241720Z 2418/2518 30019G27KT P6SM FEW200
     FM242300 33018KT P6SM FEW250
     FM250200 33009KT P6SM SKC=

USA.gov is the U.S. government's official web portal to all federal, state and local government web resources and services.